Terminal Aerodrome Forecast
Issued by NWS Topeka, KS

Home | Current Version | Previous Version | Graphics & Text | Print | Product List | Glossary On
Versions: 1 2 3 4 5 6 7 8 9 10 11 12 13 14 15 16 17 18 19
000
FTUS43 KTOP 242100 AAA
TAFTOP
TAF AMD
KTOP 242144Z 2422/2518 16014G22KT 6SM HZ SCT018 BKN025
      TEMPO 2503/2507 1SM TSRA BKN022CB
     FM250700 18006KT P6SM -RA VCTS OVC025CB
     FM251200 28010KT P6SM BKN050=

USA.gov is the U.S. government's official web portal to all federal, state and local government web resources and services.